Time;durP1;ratioP1;P1;durP2;ratioP2;P2;SDS_P1;SDS_P2;PMS_P1;PMS_P2;Temp;Humidity;BMP_temperature;BMP_pressure;BME280_temperature;BME280_humidity;BME280_pressure;Samples;Min_cycle;Max_cycle;Signal;HPM_P1;HPM_P2
2021/11/02 00:02:11;;;;;;;10.20;2.47;;;;;;;6.86;96.85;99683.34;5114806;27;20041;-83
2021/11/02 00:04:36;;;;;;;;;;;;;;;6.86;96.73;99680.69;5132359;27;20091;-84
2021/11/02 00:07:03;;;;;;;7.07;2.30;;;;;;;6.87;96.63;99678.88;5131802;27;19911;-84
2021/11/02 00:09:32;;;;;;;5.35;1.77;;;;;;;6.85;96.37;99676.38;5150036;27;20030;-83
2021/11/02 00:12:00;;;;;;;5.38;2.30;;;;;;;6.89;96.26;99672.41;5132102;27;20034;-82
2021/11/02 00:14:27;;;;;;;6.22;2.58;;;;;;;6.90;96.33;99667.91;5131584;27;20022;-83
2021/11/02 00:16:59;;;;;;;7.55;3.08;;;;;;;6.92;96.27;99665.94;5132205;27;20252;-83
2021/11/02 00:19:27;;;;;;;7.57;1.92;;;;;;;6.82;96.54;99658.13;5149860;27;20035;-83
2021/11/02 00:21:55;;;;;;;7.10;2.72;;;;;;;6.85;96.56;99662.28;5114740;27;20019;-84
2021/11/02 00:27:01;;;;;;;6.65;2.25;;;;;;;6.90;96.26;99670.56;5131852;27;20076;-83
2021/11/02 00:29:26;;;;;;;8.32;1.92;;;;;;;6.92;96.17;99676.53;5114577;27;20011;-84
2021/11/02 00:31:52;;;;;;;9.57;2.17;;;;;;;6.95;95.73;99674.41;5118828;27;20479;-83
2021/11/02 00:34:17;;;;;;;6.93;2.37;;;;;;;6.92;95.79;99648.16;5118611;27;20027;-83
2021/11/02 00:36:44;;;;;;;3.65;1.90;;;;;;;6.95;95.76;99644.34;5154195;27;20294;-84
2021/11/02 00:39:10;;;;;;;11.70;3.20;;;;;;;6.92;95.68;99655.31;5118565;27;20435;-84
2021/11/02 00:41:36;;;;;;;7.83;2.07;;;;;;;6.95;95.65;99668.25;5135369;27;20146;-83
2021/11/02 00:44:01;;;;;;;4.93;2.10;;;;;;;6.91;95.73;99658.97;5134683;27;20022;-83
2021/11/02 00:46:36;;;;;;;7.47;2.30;;;;;;;6.91;95.81;99669.59;5135964;27;20026;-83
2021/11/02 00:49:04;;;;;;;5.43;2.08;;;;;;;7.02;95.80;99687.81;5153771;27;20034;-84
2021/11/02 00:51:31;;;;;;;9.05;2.28;;;;;;;6.99;95.71;99682.84;5118533;27;20474;-84
2021/11/02 00:53:57;;;;;;;;;;;;;;;7.02;95.74;99676.38;5135957;27;20041;-83
2021/11/02 00:56:22;;;;;;;;;;;;;;;7.02;95.72;99677.19;5119135;27;20133;-83
2021/11/02 00:58:48;;;;;;;11.77;2.33;;;;;;;6.96;95.80;99672.56;5135615;27;20232;-84
2021/11/02 01:01:14;;;;;;;6.78;2.40;;;;;;;6.93;96.12;99672.88;5118432;27;20320;-84
2021/11/02 01:03:41;;;;;;;10.68;3.20;;;;;;;6.92;96.33;99673.88;5135356;27;20038;-83
2021/11/02 01:06:06;;;;;;;6.87;2.30;;;;;;;6.85;96.40;99659.63;5134940;27;20022;-83
2021/11/02 01:08:32;;;;;;;16.92;2.55;;;;;;;6.84;96.76;99676.53;5118217;27;20107;-83
2021/11/02 01:10:58;;;;;;;5.38;2.80;;;;;;;6.81;96.89;99684.81;5153266;27;20307;-83
2021/11/02 01:13:24;;;;;;;9.30;2.70;;;;;;;6.79;97.31;99686.78;5152984;27;20045;-83
2021/11/02 01:15:50;;;;;;;7.18;2.95;;;;;;;6.78;97.69;99693.94;5135007;27;20031;-84
2021/11/02 01:18:17;;;;;;;6.70;2.90;;;;;;;6.83;97.78;99714.66;5135848;27;20041;-83
2021/11/02 01:20:44;;;;;;;10.23;2.83;;;;;;;6.75;97.77;99703.06;5136920;27;20094;-82
2021/11/02 01:23:12;;;;;;;7.13;2.05;;;;;;;6.73;97.86;99701.56;5134902;27;20027;-82
2021/11/02 01:25:38;;;;;;;8.55;2.80;;;;;;;6.70;97.89;99701.91;5117746;27;20479;-83
2021/11/02 01:28:05;;;;;;;11.63;2.60;;;;;;;6.70;98.14;99710.66;5153261;27;20347;-83
2021/11/02 01:30:37;;;;;;;10.93;2.42;;;;;;;6.66;98.34;99704.03;5134882;27;20360;-82
2021/11/02 01:33:02;;;;;;;12.55;2.58;;;;;;;6.59;98.78;99705.66;5117704;27;20026;-83
2021/11/02 01:35:29;;;;;;;4.88;2.30;;;;;;;6.55;99.14;99706.97;5117433;27;20030;-83
2021/11/02 01:38:01;;;;;;;6.50;2.90;;;;;;;6.46;99.72;99707.94;5134751;27;20038;-82
2021/11/02 01:40:27;;;;;;;10.27;3.20;;;;;;;6.53;99.99;99727.53;5117586;27;20019;-84
2021/11/02 01:42:53;;;;;;;7.93;2.75;;;;;;;6.48;100.00;99732.47;5133000;27;20238;-82
2021/11/02 01:45:26;;;;;;;17.15;3.83;;;;;;;6.53;100.00;99731.03;5134515;27;20359;-82
2021/11/02 01:47:53;;;;;;;6.85;2.30;;;;;;;6.48;100.00;99719.22;5134964;27;20038;-82
2021/11/02 01:50:24;;;;;;;9.98;3.10;;;;;;;6.48;100.00;99722.69;5134556;27;20038;-82
2021/11/02 01:52:50;;;;;;;7.43;2.40;;;;;;;6.40;100.00;99722.69;5134456;27;20034;-83
2021/11/02 01:55:17;;;;;;;8.02;2.42;;;;;;;6.36;100.00;99725.81;5134058;27;20147;-82
2021/11/02 01:57:46;;;;;;;9.55;3.08;;;;;;;6.38;100.00;99732.63;5134961;27;20031;-83
2021/11/02 02:00:15;;;;;;;15.65;4.03;;;;;;;6.33;100.00;99733.09;5117527;27;20117;-82
2021/11/02 02:03:21;;;;;;;4.60;2.60;;;;;;;6.31;100.00;99735.06;5118090;27;20075;-82
2021/11/02 02:05:55;;;;;;;9.18;3.85;;;;;;;6.24;100.00;99728.75;5134210;27;20027;-82
2021/11/02 02:08:35;;;;;;;8.77;2.75;;;;;;;6.20;100.00;99740.66;5117691;27;20034;-82
2021/11/02 02:11:32;;;;;;;8.02;2.90;;;;;;;6.19;100.00;99739.00;5134159;27;20276;-82
2021/11/02 02:14:17;;;;;;;6.43;2.80;;;;;;;6.17;100.00;99748.94;5133655;27;20423;-81
2021/11/02 02:16:48;;;;;;;8.40;3.08;;;;;;;6.16;100.00;99741.13;5133821;27;20083;-82
2021/11/02 02:19:42;;;;;;;7.38;3.10;;;;;;;6.16;100.00;99768.47;5117227;27;20215;-81
2021/11/02 02:22:39;;;;;;;8.85;3.42;;;;;;;6.08;100.00;99753.34;5133848;27;20483;-82
2021/11/02 02:25:16;;;;;;;10.00;3.13;;;;;;;6.11;100.00;99757.50;5133621;27;20447;-82
2021/11/02 02:28:10;;;;;;;15.18;3.20;;;;;;;6.19;100.00;99768.16;5133789;27;20027;-81
2021/11/02 02:30:41;;;;;;;11.30;4.22;;;;;;;6.12;100.00;99753.88;5116616;27;20045;-82
2021/11/02 02:33:10;;;;;;;9.35;3.47;;;;;;;6.08;100.00;99763.13;5133419;27;20040;-82
2021/11/02 02:35:37;;;;;;;10.82;3.60;;;;;;;6.08;100.00;99758.66;5116193;27;20103;-81
2021/11/02 02:38:04;;;;;;;15.70;3.72;;;;;;;6.01;100.00;99756.78;5133809;27;20034;-82
2021/11/02 02:40:30;;;;;;;6.70;3.35;;;;;;;6.01;100.00;99765.56;5116372;27;20042;-81
2021/11/02 02:42:58;;;;;;;7.03;3.10;;;;;;;5.91;100.00;99763.00;5133377;27;20027;-81
2021/11/02 02:45:25;;;;;;;10.85;3.70;;;;;;;5.94;100.00;99783.06;5133496;27;20035;-81
2021/11/02 02:47:51;;;;;;;20.88;6.15;;;;;;;5.88;100.00;99778.41;5116526;27;20031;-81
2021/11/02 02:50:19;;;;;;;12.10;4.07;;;;;;;5.87;100.00;99788.13;5133114;27;20031;-82
2021/11/02 02:52:48;;;;;;;10.82;3.95;;;;;;;5.77;100.00;99781.28;5133010;27;20018;-81
2021/11/02 02:55:15;;;;;;;10.77;3.72;;;;;;;5.78;100.00;99788.25;5115663;27;20409;-81
2021/11/02 02:57:44;;;;;;;15.68;4.60;;;;;;;5.78;100.00;99794.34;5133267;27;20041;-81
2021/11/02 03:00:14;;;;;;;13.65;3.67;;;;;;;5.68;100.00;99783.03;5116711;27;20495;-80
2021/11/02 03:02:43;;;;;;;9.30;3.60;;;;;;;5.62;100.00;99786.28;5133317;27;20026;-81
2021/11/02 03:05:12;;;;;;;9.50;3.80;;;;;;;5.64;100.00;99793.13;5133085;27;20054;-82
2021/11/02 03:07:39;;;;;;;8.10;3.33;;;;;;;5.52;100.00;99789.03;5115343;27;20162;-81
2021/11/02 03:10:06;;;;;;;;;;;;;;;5.45;100.00;99783.50;5133289;27;20018;-81
2021/11/02 03:12:34;;;;;;;9.50;4.00;;;;;;;5.40;100.00;99793.75;5116274;27;19922;-81
2021/11/02 03:17:52;;;;;;;9.82;4.50;;;;;;;5.36;100.00;99775.66;5132788;27;20379;-80
2021/11/02 03:59:22;;;;;;;17.20;4.45;;;;;;;5.59;100.00;99834.28;5132351;27;20351;-80
2021/11/02 04:02:12;;;;;;;9.07;4.57;;;;;;;5.59;100.00;99836.91;5132219;27;20227;-79
2021/11/02 04:33:19;;;;;;;8.35;4.72;;;;;;;5.23;100.00;99761.00;5149705;27;20039;-81
2021/11/02 05:48:04;;;;;;;20.27;8.38;;;;;;;4.44;100.00;99716.75;5134612;27;20034;-80
2021/11/02 06:07:22;;;;;;;12.27;5.20;;;;;;;4.33;100.00;99736.28;5133583;27;20038;-81
2021/11/02 06:09:58;;;;;;;13.80;5.03;;;;;;;4.33;100.00;99738.06;5152053;27;20038;-80
2021/11/02 06:27:44;;;;;;;;;;;;;;;4.49;100.00;99791.13;5134266;27;20371;-80
2021/11/02 06:29:17;;;;;;;15.75;8.55;;;;;;;4.43;100.00;99794.38;5151072;27;20392;-80
2021/11/02 06:31:53;;;;;;;10.63;5.25;;;;;;;4.41;100.00;99799.81;5133940;27;20038;-79
2021/11/02 06:34:26;;;;;;;12.75;5.07;;;;;;;4.39;100.00;99806.22;5133491;27;20427;-81
2021/11/02 06:39:54;;;;;;;16.00;6.45;;;;;;;4.37;100.00;99824.03;5152137;27;20416;-81
2021/11/02 06:48:12;;;;;;;7.03;4.57;;;;;;;4.41;100.00;99849.19;5151127;27;20050;-79
2021/11/02 07:00:51;;;;;;;10.27;4.88;;;;;;;4.58;100.00;99874.84;5150569;27;20026;-80
2021/11/02 08:47:26;;;;;;;12.50;4.93;;;;;;;7.19;100.00;99737.28;5150150;27;20042;-89
2021/11/02 08:49:52;;;;;;;11.65;5.32;;;;;;;7.29;100.00;99718.53;5149831;27;20423;-90
2021/11/02 08:52:20;;;;;;;11.43;4.90;;;;;;;7.39;100.00;99711.19;5117725;27;20042;-90
2021/11/02 08:54:50;;;;;;;11.02;4.43;;;;;;;7.41;100.00;99695.09;5135742;27;20527;-91
2021/11/02 08:57:17;;;;;;;15.40;4.90;;;;;;;7.41;99.41;99684.50;5154046;27;20038;-90
2021/11/02 08:59:44;;;;;;;12.77;6.10;;;;;;;7.54;98.96;99682.16;5136228;27;20126;-90
2021/11/02 09:02:11;;;;;;;13.02;4.57;;;;;;;7.70;98.85;99685.75;5136103;27;20102;-89
2021/11/02 09:04:44;;;;;;;26.20;5.22;;;;;;;7.61;98.15;99664.53;5153564;27;20049;-90
2021/11/02 09:07:13;;;;;;;13.27;5.75;;;;;;;7.65;97.40;99658.88;5118844;27;20038;-90
2021/11/02 09:09:40;;;;;;;16.55;4.43;;;;;;;7.65;96.38;99648.25;5118696;27;20039;-92
2021/11/02 09:12:07;;;;;;;11.57;4.47;;;;;;;7.95;96.58;99667.91;5135728;27;20034;-91
2021/11/02 09:14:38;;;;;;;12.75;4.97;;;;;;;7.96;96.25;99659.78;5118371;27;20688;-90
2021/11/02 09:17:06;;;;;;;17.55;6.35;;;;;;;8.14;95.87;99677.31;5153699;27;20463;-90
2021/11/02 09:19:35;;;;;;;12.75;4.60;;;;;;;8.16;94.53;99660.19;5153563;27;20102;-91
2021/11/02 09:22:02;;;;;;;9.13;4.40;;;;;;;8.34;94.12;99667.09;5135580;27;20046;-90
2021/11/02 09:24:29;;;;;;;9.13;5.53;;;;;;;8.27;93.21;99648.34;5153075;27;20518;-90
2021/11/02 09:26:57;;;;;;;13.77;4.90;;;;;;;8.28;93.49;99654.50;5153190;27;20023;-90
2021/11/02 09:29:23;;;;;;;12.55;5.57;;;;;;;8.39;93.27;99654.09;5153776;27;20051;-90
2021/11/02 09:31:52;;;;;;;10.98;5.70;;;;;;;8.56;92.45;99661.00;5135291;27;20049;-89
2021/11/02 09:34:18;;;;;;;11.13;5.25;;;;;;;8.52;91.27;99632.25;5152986;27;20047;-89
2021/11/02 09:36:52;;;;;;;7.63;4.30;;;;;;;8.78;91.22;99670.00;5153399;27;20031;-89
2021/11/02 09:39:20;;;;;;;15.55;4.85;;;;;;;8.86;90.26;99655.81;5152942;27;20535;-89
2021/11/02 09:42:10;;;;;;;9.68;4.13;;;;;;;8.99;90.08;99672.03;5134891;27;20065;-89
2021/11/02 09:44:45;;;;;;;10.15;4.75;;;;;;;9.15;88.99;99655.06;5152832;27;20042;-88
2021/11/02 09:47:40;;;;;;;9.27;4.82;;;;;;;9.36;87.74;99650.88;5134862;27;20342;-89
2021/11/02 09:50:14;;;;;;;8.65;4.40;;;;;;;9.21;87.81;99641.03;5117057;27;20158;-85
2021/11/02 09:53:10;;;;;;;10.80;4.47;;;;;;;9.28;87.02;99641.97;5116932;27;20432;-86
2021/11/02 09:56:03;;;;;;;13.70;4.57;;;;;;;9.39;88.26;99674.50;5152280;27;20055;-87
2021/11/02 09:58:41;;;;;;;17.40;5.05;;;;;;;9.83;87.63;99703.03;5116920;27;20325;-86
2021/11/02 10:01:35;;;;;;;9.98;4.50;;;;;;;10.20;84.63;99671.97;5134132;27;20065;-86
2021/11/02 10:04:30;;;;;;;7.88;4.65;;;;;;;10.21;83.76;99660.25;5150586;27;20041;-86
2021/11/02 10:07:06;;;;;;;10.43;4.00;;;;;;;11.00;82.56;99687.03;5133875;27;20026;-86
2021/11/02 10:09:49;;;;;;;14.82;4.57;;;;;;;10.92;80.61;99631.09;5151848;27;20027;-84
2021/11/02 10:12:19;;;;;;;11.07;4.45;;;;;;;11.40;80.89;99682.88;5150557;27;20035;-85
2021/11/02 10:15:28;;;;;;;9.75;4.40;;;;;;;12.13;77.50;99657.63;5133003;27;20428;-83
2021/11/02 10:18:32;;;;;;;10.63;4.07;;;;;;;12.74;76.22;99656.81;5115869;27;20463;-82
2021/11/02 10:21:20;;;;;;;10.20;4.03;;;;;;;13.04;73.64;99662.59;5151403;27;20026;-83
2021/11/02 10:24:19;;;;;;;9.00;4.72;;;;;;;12.94;72.25;99619.31;5115816;27;20424;-85
2021/11/02 10:27:10;;;;;;;10.88;4.93;;;;;;;13.25;71.49;99616.84;5133210;27;20371;-82
2021/11/02 10:29:58;;;;;;;11.48;4.85;;;;;;;14.25;70.56;99669.44;5151353;27;20062;-82
2021/11/02 10:32:27;;;;;;;12.40;4.40;;;;;;;14.84;66.57;99646.84;5150910;27;20386;-83
2021/11/02 10:35:17;;;;;;;12.10;4.18;;;;;;;14.98;66.19;99631.44;5115357;27;20061;-81
2021/11/02 10:38:04;;;;;;;10.52;5.22;;;;;;;14.38;65.22;99555.81;5115723;27;20357;-81
2021/11/02 10:41:04;;;;;;;10.82;4.63;;;;;;;15.05;65.70;99626.03;5151111;27;20023;-81
2021/11/02 10:43:44;;;;;;;9.30;4.05;;;;;;;15.79;63.53;99624.34;5097384;27;20042;-81
2021/11/02 10:46:13;;;;;;;11.98;4.10;;;;;;;16.16;61.61;99605.47;5132981;27;20023;-81
2021/11/02 10:48:48;;;;;;;10.20;4.25;;;;;;;16.20;61.27;99590.50;5132219;27;20031;-80
2021/11/02 10:51:59;;;;;;;7.10;3.60;;;;;;;16.73;59.06;99578.97;5132214;27;20077;-79
2021/11/02 10:54:36;;;;;;;8.27;3.95;;;;;;;17.24;58.74;99582.09;5146630;27;20105;-79
2021/11/02 10:57:12;;;;;;;7.43;4.00;;;;;;;17.32;57.39;99545.84;5150366;27;20030;-79
2021/11/02 10:59:44;;;;;;;13.35;4.28;;;;;;;17.01;58.34;99512.81;5115152;27;20527;-80
2021/11/02 11:02:24;;;;;;;12.27;3.60;;;;;;;16.93;58.86;99523.94;5131958;27;20037;-79
2021/11/02 11:04:51;;;;;;;12.57;4.00;;;;;;;17.45;57.55;99548.31;5149936;27;20066;-79
2021/11/02 11:07:17;;;;;;;11.07;4.18;;;;;;;17.20;57.72;99502.72;5131724;27;20025;-79
2021/11/02 11:09:46;;;;;;;7.47;4.20;;;;;;;17.69;56.75;99528.31;5131700;27;20030;-78
2021/11/02 11:12:14;;;;;;;10.60;3.45;;;;;;;17.08;55.87;99436.13;5150010;27;20038;-79
2021/11/02 11:14:44;;;;;;;9.98;4.05;;;;;;;15.07;61.51;99390.91;5131194;27;20038;-79
2021/11/02 11:17:14;;;;;;;12.00;3.97;;;;;;;15.07;63.19;99474.25;5131757;27;20118;-80
2021/11/02 11:20:02;;;;;;;10.55;4.05;;;;;;;15.51;61.09;99452.66;5131566;27;20087;-79
2021/11/02 11:22:36;;;;;;;12.15;3.75;;;;;;;15.84;61.68;99498.00;5131340;27;20122;-79
2021/11/02 11:25:07;;;;;;;7.63;3.83;;;;;;;16.60;59.26;99514.47;5149342;27;20035;-78
2021/11/02 11:27:35;;;;;;;9.73;4.03;;;;;;;16.08;59.67;99444.25;5149583;27;20049;-78
2021/11/02 11:30:07;;;;;;;8.65;3.30;;;;;;;15.60;61.23;99422.53;5131216;27;20448;-78
2021/11/02 11:32:37;;;;;;;9.25;3.10;;;;;;;16.18;60.08;99479.53;5131255;27;20026;-77
2021/11/02 11:35:03;;;;;;;8.93;4.03;;;;;;;14.86;61.49;99354.56;5131050;27;20357;-79
2021/11/02 11:37:37;;;;;;;7.22;3.30;;;;;;;16.01;60.88;99469.41;5149526;27;20057;-79
2021/11/02 11:40:06;;;;;;;7.30;3.25;;;;;;;16.35;59.04;99448.16;5131381;27;20038;-78
2021/11/02 11:42:33;;;;;;;11.43;5.22;;;;;;;15.16;61.84;99360.00;5114016;27;20025;-78
2021/11/02 11:45:20;;;;;;;9.55;3.60;;;;;;;16.08;60.71;99447.75;5131053;27;20045;-79
2021/11/02 11:47:46;;;;;;;12.27;3.85;;;;;;;15.42;60.64;99368.75;5149639;27;20031;-80
2021/11/02 11:50:19;;;;;;;10.45;3.63;;;;;;;15.49;61.37;99415.22;5130869;27;20030;-79
2021/11/02 11:52:55;;;;;;;11.30;4.25;;;;;;;15.82;60.98;99430.13;5149160;27;20391;-78
2021/11/02 11:55:27;;;;;;;7.82;3.75;;;;;;;15.54;61.26;99399.22;5130640;27;20034;-79
2021/11/02 11:58:17;;;;;;;9.02;4.47;;;;;;;15.87;59.77;99389.88;5131000;27;20059;-78
2021/11/02 12:00:51;;;;;;;11.75;4.30;;;;;;;15.13;63.26;99414.22;5150097;27;20023;-80
2021/11/02 12:03:57;;;;;;;10.35;4.20;;;;;;;15.31;62.59;99405.34;5130905;27;20087;-78
2021/11/02 12:06:38;;;;;;;10.43;3.85;;;;;;;16.01;61.23;99445.19;5130411;27;20035;-79
2021/11/02 12:09:16;;;;;;;8.65;3.40;;;;;;;16.12;61.37;99450.81;5149065;27;20039;-79
2021/11/02 12:11:42;;;;;;;11.27;4.60;;;;;;;16.25;60.19;99426.38;5148779;27;20061;-79
2021/11/02 12:14:09;;;;;;;;;;;;;;;15.19;62.60;99359.56;5113837;27;20030;-79
2021/11/02 12:16:43;;;;;;;15.43;5.00;;;;;;;15.39;62.46;99367.34;5148632;27;19964;-79
2021/11/02 12:19:15;;;;;;;10.05;4.10;;;;;;;14.85;64.50;99406.69;5148696;27;20027;-79
2021/11/02 12:21:44;;;;;;;12.82;4.20;;;;;;;14.88;64.45;99406.22;5130558;27;20035;-78
2021/11/02 12:24:14;;;;;;;15.88;4.80;;;;;;;14.99;63.92;99399.28;5130446;27;20510;-79
2021/11/02 12:26:50;;;;;;;10.15;4.43;;;;;;;14.21;65.56;99352.31;5129731;27;20027;-79
2021/11/02 12:29:24;;;;;;;10.20;4.03;;;;;;;15.17;65.31;99476.41;5148646;27;20037;-79
2021/11/02 12:32:02;;;;;;;9.70;3.90;;;;;;;16.03;61.92;99483.44;5130561;27;20046;-79
2021/11/02 12:34:40;;;;;;;8.63;4.18;;;;;;;16.23;60.95;99455.41;5148665;27;20031;-78
2021/11/02 12:37:10;;;;;;;7.35;3.72;;;;;;;16.98;59.67;99483.63;5113476;27;20504;-78
2021/11/02 12:39:37;;;;;;;7.80;4.10;;;;;;;16.77;58.84;99417.63;5130524;27;20033;-78
2021/11/02 12:42:03;;;;;;;10.60;4.32;;;;;;;15.95;62.06;99421.88;5130321;27;20415;-78
2021/11/02 12:44:30;;;;;;;9.43;3.67;;;;;;;15.91;60.99;99377.59;5112941;27;20432;-79
2021/11/02 12:46:59;;;;;;;10.77;3.85;;;;;;;16.27;60.21;99410.78;5113182;27;20042;-78
2021/11/02 12:49:38;;;;;;;12.02;3.97;;;;;;;16.21;59.46;99368.66;5130383;27;20466;-78
2021/11/02 12:52:10;;;;;;;8.85;3.47;;;;;;;16.14;59.87;99393.00;5148310;27;20038;-78
2021/11/02 12:54:37;;;;;;;10.27;4.85;;;;;;;16.40;60.24;99417.84;5148119;27;20200;-78
2021/11/02 12:57:05;;;;;;;9.65;3.38;;;;;;;16.81;59.65;99443.91;5148346;27;20121;-78
2021/11/02 12:59:37;;;;;;;6.18;2.95;;;;;;;16.84;58.79;99419.16;5130170;27;20046;-78
2021/11/02 13:02:31;;;;;;;5.35;2.67;;;;;;;17.28;57.84;99443.84;5129733;27;20039;-78
2021/11/02 13:04:59;;;;;;;9.85;2.72;;;;;;;17.21;57.64;99402.69;5112452;27;20090;-78
2021/11/02 13:07:27;;;;;;;12.00;3.42;;;;;;;17.48;56.78;99421.03;5129646;27;20038;-78
2021/11/02 13:09:55;;;;;;;7.22;3.63;;;;;;;16.86;59.04;99383.91;5112775;27;20023;-78
2021/11/02 13:12:26;;;;;;;7.30;3.55;;;;;;;17.05;58.10;99379.97;5129810;27;20041;-78
2021/11/02 13:14:59;;;;;;;10.75;3.53;;;;;;;16.85;58.00;99353.41;5112063;27;20099;-78
2021/11/02 13:17:35;;;;;;;7.30;2.60;;;;;;;17.40;57.78;99433.00;5129652;27;20038;-77
2021/11/02 13:20:02;;;;;;;11.90;3.78;;;;;;;17.30;57.51;99393.16;5130174;27;20037;-77
2021/11/02 13:22:31;;;;;;;7.07;3.25;;;;;;;16.81;59.00;99387.31;5130199;27;20092;-77
2021/11/02 13:25:06;;;;;;;11.95;4.43;;;;;;;16.44;59.78;99355.19;5129677;27;20042;-78
2021/11/02 13:27:46;;;;;;;12.80;3.63;;;;;;;16.22;60.82;99363.03;5129971;27;20076;-78
2021/11/02 13:30:36;;;;;;;11.23;3.50;;;;;;;16.39;60.11;99379.31;5148032;27;20027;-78
2021/11/02 13:33:17;;;;;;;14.18;4.07;;;;;;;15.86;59.52;99291.38;5129576;27;20041;-78
2021/11/02 13:35:47;;;;;;;9.38;3.28;;;;;;;16.26;60.76;99398.38;5148036;27;20307;-78
2021/11/02 13:38:33;;;;;;;8.93;3.30;;;;;;;16.62;58.71;99374.97;5132162;27;20043;-78
2021/11/02 13:41:03;;;;;;;10.52;3.22;;;;;;;16.86;60.97;99441.31;5133022;27;20042;-78
2021/11/02 13:43:37;;;;;;;7.20;3.15;;;;;;;16.74;59.72;99391.13;5115452;27;20034;-78
2021/11/02 13:46:05;;;;;;;6.93;3.00;;;;;;;16.18;60.82;99361.06;5116035;27;20027;-77
2021/11/02 13:48:32;;;;;;;8.35;3.78;;;;;;;15.01;62.59;99299.63;5132980;27;20347;-78
2021/11/02 13:51:03;;;;;;;9.43;3.70;;;;;;;14.47;64.88;99312.81;5133027;27;20098;-78
2021/11/02 13:53:33;;;;;;;9.38;3.47;;;;;;;14.58;65.18;99368.50;5132659;27;20039;-78
2021/11/02 13:56:02;;;;;;;10.60;3.42;;;;;;;14.42;66.59;99393.22;5150942;27;20239;-78
2021/11/02 13:58:28;;;;;;;7.57;3.47;;;;;;;14.55;65.54;99374.34;5133157;27;20487;-78
2021/11/02 14:00:53;;;;;;;8.07;3.88;;;;;;;13.76;67.65;99346.28;5116084;27;20034;-78
2021/11/02 14:03:27;;;;;;;6.63;3.05;;;;;;;14.00;68.66;99439.41;5151039;27;20041;-77
2021/11/02 14:05:55;;;;;;;8.07;3.80;;;;;;;13.47;68.89;99370.78;5133078;27;20555;-77
2021/11/02 14:08:23;;;;;;;6.93;3.13;;;;;;;13.33;69.09;99369.22;5115548;27;20049;-77
2021/11/02 14:10:59;;;;;;;6.40;2.53;;;;;;;13.14;71.14;99407.63;5115893;27;20039;-77
2021/11/02 14:13:45;;;;;;;9.18;3.35;;;;;;;12.92;71.32;99394.50;5132467;27;20038;-77
2021/11/02 14:16:13;;;;;;;10.98;3.60;;;;;;;12.96;72.16;99433.22;5133072;27;20435;-77
2021/11/02 14:18:39;;;;;;;11.45;4.55;;;;;;;12.46;72.09;99372.16;5132362;27;20027;-80
2021/11/02 14:21:06;;;;;;;6.25;3.10;;;;;;;12.45;74.31;99449.97;5132799;27;20030;-79
2021/11/02 14:23:42;;;;;;;9.02;3.88;;;;;;;12.33;73.03;99419.50;5151323;27;20111;-80
2021/11/02 14:26:26;;;;;;;9.23;3.55;;;;;;;12.18;73.66;99422.41;5133917;27;20376;-79
2021/11/02 14:28:57;;;;;;;7.95;3.90;;;;;;;11.74;75.34;99413.88;5116850;27;20038;-79
2021/11/02 14:31:37;;;;;;;10.90;4.97;;;;;;;11.70;76.03;99439.34;5133862;27;20049;-80
2021/11/02 14:34:32;;;;;;;7.25;3.20;;;;;;;11.80;75.16;99450.50;5151735;27;20604;-79
2021/11/02 14:37:21;;;;;;;6.75;3.65;;;;;;;11.86;74.46;99446.19;5133885;27;20033;-80
2021/11/02 14:40:05;;;;;;;8.95;4.10;;;;;;;11.82;74.88;99460.97;5115004;27;20503;-76
2021/11/02 14:42:47;;;;;;;8.85;4.32;;;;;;;11.71;76.10;99475.78;5151395;27;20444;-76
2021/11/02 14:45:18;;;;;;;9.00;3.80;;;;;;;11.73;74.71;99457.69;5151278;27;20038;-76
2021/11/02 14:47:45;;;;;;;9.63;4.35;;;;;;;11.74;75.27;99470.00;5133323;27;20158;-76
2021/11/02 14:50:31;;;;;;;8.02;4.03;;;;;;;11.58;74.26;99432.94;5132570;27;20035;-81
2021/11/02 14:53:36;;;;;;;7.80;4.40;;;;;;;11.50;75.33;99446.50;5152110;27;20026;-81
2021/11/02 14:56:08;;;;;;;11.98;4.32;;;;;;;11.55;74.29;99449.41;5092642;27;20086;-80
2021/11/02 14:58:40;;;;;;;6.03;3.45;;;;;;;11.41;74.61;99433.31;5151397;27;20031;-81
2021/11/02 15:01:09;;;;;;;10.20;3.72;;;;;;;11.26;74.52;99413.09;5150029;27;20033;-76
2021/11/02 15:03:36;;;;;;;6.68;3.67;;;;;;;11.28;74.46;99432.41;5131891;27;20436;-81
2021/11/02 15:06:06;;;;;;;6.47;3.28;;;;;;;11.19;74.76;99429.94;5149511;27;20030;-81
2021/11/02 15:08:38;;;;;;;9.60;4.38;;;;;;;11.13;74.39;99416.53;5150164;27;20533;-80
2021/11/02 15:11:11;;;;;;;13.27;5.00;;;;;;;11.04;75.61;99442.59;5149976;27;20031;-82
2021/11/02 15:13:39;;;;;;;12.50;3.75;;;;;;;10.99;75.62;99445.84;5149839;27;20487;-82
2021/11/02 15:16:05;;;;;;;5.60;3.97;;;;;;;11.05;75.66;99462.94;5131640;27;20034;-82
2021/11/02 15:18:38;;;;;;;;;;;;;;;11.16;75.68;99482.91;5132300;27;20035;-81
2021/11/02 15:21:03;;;;;;;7.85;5.55;;;;;;;10.97;76.02;99458.56;5131445;27;19926;-83
2021/11/02 15:23:37;;;;;;;8.97;4.70;;;;;;;10.65;77.07;99438.66;5131341;27;20022;-82
2021/11/02 15:26:03;;;;;;;11.85;5.60;;;;;;;10.31;77.43;99436.75;5149851;27;20042;-83
2021/11/02 15:28:29;;;;;;;8.95;4.40;;;;;;;10.34;77.29;99447.03;5150279;27;20026;-83
2021/11/02 15:31:03;;;;;;;8.75;4.20;;;;;;;10.28;77.58;99448.63;5150016;27;20091;-83
2021/11/02 15:33:32;;;;;;;9.95;4.43;;;;;;;10.12;77.48;99427.53;5149770;27;20311;-83
2021/11/02 15:36:19;;;;;;;8.65;4.07;;;;;;;10.20;77.37;99462.06;5114444;27;20526;-83
2021/11/02 15:39:07;;;;;;;6.45;3.42;;;;;;;10.01;77.47;99454.72;5131916;27;20392;-83
2021/11/02 15:41:33;;;;;;;4.45;3.35;;;;;;;9.97;77.91;99456.91;5149480;27;20109;-83
2021/11/02 15:44:01;;;;;;;;;;;;;;;9.92;78.09;99451.34;5132223;27;20023;-84
2021/11/02 15:46:37;;;;;;;7.55;3.45;;;;;;;9.76;79.02;99459.56;5131579;27;19910;-85
2021/11/02 15:49:06;;;;;;;14.40;3.55;;;;;;;9.62;80.06;99480.75;5131869;27;20121;-85
2021/11/02 15:51:37;;;;;;;6.13;4.03;;;;;;;9.63;79.78;99487.72;5130653;27;20065;-85
2021/11/02 15:54:11;;;;;;;10.65;3.65;;;;;;;9.58;80.32;99487.47;5130706;27;20030;-85
2021/11/02 15:56:37;;;;;;;8.13;4.15;;;;;;;9.54;80.89;99498.69;5113736;27;20122;-85
2021/11/02 15:59:05;;;;;;;7.72;4.20;;;;;;;9.44;81.30;99493.66;5131095;27;20444;-82
2021/11/02 16:01:47;;;;;;;9.70;4.50;;;;;;;9.32;82.64;99506.59;5112812;27;20031;-83
2021/11/02 16:04:18;;;;;;;7.70;4.05;;;;;;;9.33;83.69;99524.22;5130624;27;20099;-85
2021/11/02 16:07:07;;;;;;;12.20;4.60;;;;;;;9.26;83.46;99521.47;5130324;27;20034;-85
2021/11/02 16:09:54;;;;;;;8.00;3.72;;;;;;;9.13;83.76;99513.31;5130850;27;20042;-85
2021/11/02 16:12:35;;;;;;;7.93;4.18;;;;;;;9.08;84.40;99515.69;5130566;27;20381;-86
2021/11/02 16:15:14;;;;;;;9.23;4.72;;;;;;;8.96;85.13;99522.47;5113723;27;20562;-86
2021/11/02 16:18:06;;;;;;;12.25;3.95;;;;;;;8.78;85.77;99515.66;5148884;27;20034;-86
2021/11/02 16:20:33;;;;;;;8.63;4.30;;;;;;;8.57;86.82;99518.16;5139807;27;20031;-88
2021/11/02 16:23:04;;;;;;;8.55;4.47;;;;;;;8.39;87.53;99521.94;5131052;27;20018;-86
2021/11/02 16:25:33;;;;;;;11.15;4.13;;;;;;;8.27;88.19;99534.00;5113711;27;20085;-88
2021/11/02 16:28:13;;;;;;;6.10;3.50;;;;;;;8.09;88.87;99530.81;5131287;27;20031;-85
2021/11/02 16:30:40;;;;;;;7.40;3.30;;;;;;;7.98;89.45;99534.69;5131559;27;20439;-88
2021/11/02 16:33:07;;;;;;;7.70;4.10;;;;;;;7.86;89.97;99541.41;5130879;27;20515;-87
2021/11/02 16:35:33;;;;;;;9.45;3.83;;;;;;;7.74;90.35;99544.44;5148967;27;20152;-86
2021/11/02 16:38:33;;;;;;;8.53;4.20;;;;;;;7.60;91.08;99556.63;5130768;27;20211;-87
2021/11/02 16:41:16;;;;;;;10.52;4.57;;;;;;;7.56;91.90;99562.44;5131078;27;20034;-87
2021/11/02 16:43:56;;;;;;;8.20;4.30;;;;;;;7.45;92.44;99574.28;5130578;27;20488;-88
2021/11/02 16:46:51;;;;;;;7.00;4.32;;;;;;;7.31;93.03;99569.69;5130766;27;20061;-87
2021/11/02 16:49:20;;;;;;;12.82;4.60;;;;;;;7.29;93.85;99587.59;5113786;27;20039;-87
2021/11/02 16:52:08;;;;;;;12.88;4.43;;;;;;;7.27;94.15;99594.91;5130807;27;20564;-87
2021/11/02 16:54:43;;;;;;;10.98;4.40;;;;;;;7.19;94.61;99604.53;5130877;27;20078;-86
2021/11/02 16:57:19;;;;;;;13.48;3.83;;;;;;;7.16;94.93;99612.84;5113545;27;20054;-88
2021/11/02 16:59:46;;;;;;;8.40;4.35;;;;;;;7.10;95.18;99618.81;5131169;27;20041;-87
2021/11/02 17:02:15;;;;;;;8.05;4.55;;;;;;;7.05;95.12;99617.69;5131585;27;20023;-87
2021/11/02 17:04:43;;;;;;;10.65;5.47;;;;;;;6.93;95.56;99614.50;5131051;27;20518;-88